sensor_id;sensor_type;location;lat;lon;timestamp;pressure;altitude;pressure_sealevel;temperature;humidity
26443;BME280;5563;52.296;6.806;2023-06-22T00:01:45;101797.00;;;17.17;87.17
26443;BME280;5563;52.296;6.806;2023-06-22T00:04:12;101833.88;;;17.36;87.62
26443;BME280;5563;52.296;6.806;2023-06-22T00:06:46;101829.19;;;17.28;87.77
26443;BME280;5563;52.296;6.806;2023-06-22T00:09:20;101797.13;;;17.16;88.21
26443;BME280;5563;52.296;6.806;2023-06-22T00:11:47;101817.53;;;17.28;88.03
26443;BME280;5563;52.296;6.806;2023-06-22T00:14:21;101811.88;;;17.31;88.89
26443;BME280;5563;52.296;6.806;2023-06-22T00:16:48;101800.66;;;17.26;88.93
26443;BME280;5563;52.296;6.806;2023-06-22T00:19:23;101819.53;;;17.36;88.96
26443;BME280;5563;52.296;6.806;2023-06-22T00:21:58;101820.66;;;17.33;89.16
26443;BME280;5563;52.296;6.806;2023-06-22T00:24:27;101821.50;;;17.34;89.22
26443;BME280;5563;52.296;6.806;2023-06-22T00:27:00;101815.72;;;17.28;88.81
26443;BME280;5563;52.296;6.806;2023-06-22T00:29:27;101803.09;;;17.19;89.30
26443;BME280;5563;52.296;6.806;2023-06-22T00:32:01;101785.38;;;17.07;88.95
26443;BME280;5563;52.296;6.806;2023-06-22T00:34:35;101794.16;;;17.09;89.02
26443;BME280;5563;52.296;6.806;2023-06-22T00:37:02;101772.34;;;16.93;88.86
26443;BME280;5563;52.296;6.806;2023-06-22T00:39:36;101785.50;;;16.96;88.90
26443;BME280;5563;52.296;6.806;2023-06-22T00:42:09;101788.22;;;16.96;89.19
26443;BME280;5563;52.296;6.806;2023-06-22T00:44:36;101779.13;;;16.88;89.36
26443;BME280;5563;52.296;6.806;2023-06-22T00:47:13;101776.84;;;16.83;89.54
26443;BME280;5563;52.296;6.806;2023-06-22T00:49:49;101783.81;;;16.86;89.40
26443;BME280;5563;52.296;6.806;2023-06-22T00:52:27;101778.28;;;16.87;89.82
26443;BME280;5563;52.296;6.806;2023-06-22T00:54:57;101779.97;;;16.98;90.63
26443;BME280;5563;52.296;6.806;2023-06-22T00:57:30;101781.69;;;16.99;90.38
26443;BME280;5563;52.296;6.806;2023-06-22T00:59:58;101748.94;;;16.75;89.52
26443;BME280;5563;52.296;6.806;2023-06-22T01:02:32;101780.25;;;16.85;89.91
26443;BME280;5563;52.296;6.806;2023-06-22T01:04:59;101775.16;;;16.82;89.52
26443;BME280;5563;52.296;6.806;2023-06-22T01:13:42;101778.69;;;16.73;89.48
26443;BME280;5563;52.296;6.806;2023-06-22T01:16:21;101750.19;;;16.52;89.90
26443;BME280;5563;52.296;6.806;2023-06-22T01:19:01;101770.59;;;16.54;89.88
26443;BME280;5563;52.296;6.806;2023-06-22T01:21:31;101773.69;;;16.50;90.01
26443;BME280;5563;52.296;6.806;2023-06-22T01:24:41;101795.56;;;16.56;89.26
26443;BME280;5563;52.296;6.806;2023-06-22T01:30:10;101784.44;;;16.40;90.04
26443;BME280;5563;52.296;6.806;2023-06-22T01:32:44;101788.81;;;16.41;90.33
26443;BME280;5563;52.296;6.806;2023-06-22T01:35:19;101784.59;;;16.39;90.63
26443;BME280;5563;52.296;6.806;2023-06-22T01:37:51;101782.56;;;16.31;90.65
26443;BME280;5563;52.296;6.806;2023-06-22T01:40:33;101788.97;;;16.30;90.93
26443;BME280;5563;52.296;6.806;2023-06-22T01:43:02;101771.63;;;16.23;91.42
26443;BME280;5563;52.296;6.806;2023-06-22T01:45:36;101755.88;;;16.09;91.79
26443;BME280;5563;52.296;6.806;2023-06-22T01:48:18;101762.84;;;16.11;92.03
26443;BME280;5563;52.296;6.806;2023-06-22T01:50:46;101795.16;;;16.31;92.87
26443;BME280;5563;52.296;6.806;2023-06-22T01:53:22;101785.25;;;16.31;92.97
26443;BME280;5563;52.296;6.806;2023-06-22T01:55:49;101752.66;;;16.15;93.82
26443;BME280;5563;52.296;6.806;2023-06-22T01:58:25;101767.81;;;16.26;93.31
26443;BME280;5563;52.296;6.806;2023-06-22T02:00:58;101766.81;;;16.17;92.36
26443;BME280;5563;52.296;6.806;2023-06-22T02:03:37;101789.22;;;16.27;93.26
26443;BME280;5563;52.296;6.806;2023-06-22T02:06:08;101769.06;;;16.21;93.61
26443;BME280;5563;52.296;6.806;2023-06-22T02:08:48;101743.13;;;16.11;93.38
26443;BME280;5563;52.296;6.806;2023-06-22T02:11:19;101748.84;;;16.17;94.10
26443;BME280;5563;52.296;6.806;2023-06-22T02:13:54;101764.84;;;16.29;94.30
26443;BME280;5563;52.296;6.806;2023-06-22T02:16:22;101782.72;;;16.39;94.62
26443;BME280;5563;52.296;6.806;2023-06-22T02:18:55;101773.50;;;16.32;93.99
26443;BME280;5563;52.296;6.806;2023-06-22T02:21:23;101742.75;;;16.15;93.96
26443;BME280;5563;52.296;6.806;2023-06-22T02:24:00;101767.25;;;16.22;93.10
26443;BME280;5563;52.296;6.806;2023-06-22T02:26:42;101759.47;;;16.19;93.18
26443;BME280;5563;52.296;6.806;2023-06-22T02:29:19;101769.38;;;16.18;93.52
26443;BME280;5563;52.296;6.806;2023-06-22T02:31:46;101777.56;;;16.17;93.83
26443;BME280;5563;52.296;6.806;2023-06-22T02:34:21;101763.78;;;16.01;94.02
26443;BME280;5563;52.296;6.806;2023-06-22T02:36:50;101776.56;;;16.08;93.86
26443;BME280;5563;52.296;6.806;2023-06-22T02:39:24;101774.13;;;16.05;94.10
26443;BME280;5563;52.296;6.806;2023-06-22T02:41:53;101773.16;;;16.06;94.90
26443;BME280;5563;52.296;6.806;2023-06-22T02:44:26;101747.06;;;15.97;95.30
26443;BME280;5563;52.296;6.806;2023-06-22T02:47:03;101761.53;;;16.06;95.17
26443;BME280;5563;52.296;6.806;2023-06-22T02:49:52;101758.28;;;16.02;94.22
26443;BME280;5563;52.296;6.806;2023-06-22T02:52:32;101738.22;;;15.86;94.70
26443;BME280;5563;52.296;6.806;2023-06-22T02:54:59;101748.59;;;15.90;95.35
26443;BME280;5563;52.296;6.806;2023-06-22T02:57:33;101764.06;;;15.98;95.24
26443;BME280;5563;52.296;6.806;2023-06-22T03:00:04;101774.13;;;16.05;95.42
26443;BME280;5563;52.296;6.806;2023-06-22T03:02:51;101761.06;;;15.91;95.28
26443;BME280;5563;52.296;6.806;2023-06-22T03:05:24;101746.88;;;15.80;95.39
26443;BME280;5563;52.296;6.806;2023-06-22T03:07:59;101756.09;;;15.87;95.79
26443;BME280;5563;52.296;6.806;2023-06-22T03:10:26;101761.47;;;15.87;95.74
26443;BME280;5563;52.296;6.806;2023-06-22T03:13:00;101757.53;;;15.91;96.24
26443;BME280;5563;52.296;6.806;2023-06-22T03:15:27;101743.19;;;15.81;96.17
26443;BME280;5563;52.296;6.806;2023-06-22T03:18:02;101756.81;;;15.89;96.68
26443;BME280;5563;52.296;6.806;2023-06-22T03:20:33;101781.50;;;16.03;96.48
26443;BME280;5563;52.296;6.806;2023-06-22T03:23:06;101761.91;;;15.92;96.82
26443;BME280;5563;52.296;6.806;2023-06-22T03:25:36;101746.88;;;15.89;97.13
26443;BME280;5563;52.296;6.806;2023-06-22T03:28:17;101744.19;;;15.89;97.12
26443;BME280;5563;52.296;6.806;2023-06-22T03:30:44;101741.66;;;15.88;96.77
26443;BME280;5563;52.296;6.806;2023-06-22T03:33:18;101758.69;;;15.98;96.40
26443;BME280;5563;52.296;6.806;2023-06-22T03:35:51;101742.94;;;15.93;96.87
26443;BME280;5563;52.296;6.806;2023-06-22T03:38:18;101762.53;;;16.05;96.58
26443;BME280;5563;52.296;6.806;2023-06-22T03:40:51;101768.75;;;16.05;96.91
26443;BME280;5563;52.296;6.806;2023-06-22T03:43:18;101767.78;;;16.16;97.40
26443;BME280;5563;52.296;6.806;2023-06-22T03:45:52;101761.00;;;16.12;96.54
26443;BME280;5563;52.296;6.806;2023-06-22T03:48:25;101755.03;;;16.08;96.35
26443;BME280;5563;52.296;6.806;2023-06-22T03:50:59;101765.09;;;16.16;96.32
26443;BME280;5563;52.296;6.806;2023-06-22T03:53:26;101772.19;;;16.17;96.41
26443;BME280;5563;52.296;6.806;2023-06-22T03:56:00;101759.28;;;16.11;96.72
26443;BME280;5563;52.296;6.806;2023-06-22T03:58:27;101747.69;;;16.10;96.45
26443;BME280;5563;52.296;6.806;2023-06-22T04:01:05;101739.72;;;16.09;96.39
26443;BME280;5563;52.296;6.806;2023-06-22T04:03:33;101747.84;;;16.18;96.53
26443;BME280;5563;52.296;6.806;2023-06-22T04:06:07;101734.25;;;16.20;96.51
26443;BME280;5563;52.296;6.806;2023-06-22T04:08:40;101744.84;;;16.21;96.23
26443;BME280;5563;52.296;6.806;2023-06-22T04:11:31;101739.91;;;16.27;95.52
26443;BME280;5563;52.296;6.806;2023-06-22T04:13:58;101747.28;;;16.34;95.42
26443;BME280;5563;52.296;6.806;2023-06-22T04:16:31;101741.34;;;16.31;96.13
26443;BME280;5563;52.296;6.806;2023-06-22T04:19:05;101748.72;;;16.38;96.10
26443;BME280;5563;52.296;6.806;2023-06-22T04:21:39;101737.22;;;16.27;95.45
26443;BME280;5563;52.296;6.806;2023-06-22T04:24:12;101747.28;;;16.34;95.63
26443;BME280;5563;52.296;6.806;2023-06-22T04:26:45;101748.16;;;16.35;95.53
26443;BME280;5563;52.296;6.806;2023-06-22T04:29:27;101758.81;;;16.46;96.21
26443;BME280;5563;52.296;6.806;2023-06-22T04:32:04;101727.47;;;16.26;95.31
26443;BME280;5563;52.296;6.806;2023-06-22T04:34:32;101740.66;;;16.38;94.94
26443;BME280;5563;52.296;6.806;2023-06-22T04:37:05;101742.50;;;16.38;95.16
26443;BME280;5563;52.296;6.806;2023-06-22T04:39:38;101720.81;;;16.30;95.49
26443;BME280;5563;52.296;6.806;2023-06-22T04:42:12;101747.31;;;16.44;95.52
26443;BME280;5563;52.296;6.806;2023-06-22T04:44:39;101730.91;;;16.37;95.39
26443;BME280;5563;52.296;6.806;2023-06-22T04:47:13;101726.47;;;16.36;95.45
26443;BME280;5563;52.296;6.806;2023-06-22T04:49:47;101741.69;;;16.47;95.69
26443;BME280;5563;52.296;6.806;2023-06-22T04:52:14;101720.25;;;16.36;94.92
26443;BME280;5563;52.296;6.806;2023-06-22T04:54:56;101727.63;;;16.43;95.34
26443;BME280;5563;52.296;6.806;2023-06-22T04:57:31;101750.19;;;16.52;95.23
26443;BME280;5563;52.296;6.806;2023-06-22T05:00:11;101752.19;;;16.59;94.91
26443;BME280;5563;52.296;6.806;2023-06-22T05:02:52;101713.66;;;16.49;95.33
26443;BME280;5563;52.296;6.806;2023-06-22T05:05:43;101736.63;;;16.72;94.53
26443;BME280;5563;52.296;6.806;2023-06-22T05:08:13;101728.97;;;16.77;94.79
26443;BME280;5563;52.296;6.806;2023-06-22T05:11:26;101742.69;;;16.93;93.91
26443;BME280;5563;52.296;6.806;2023-06-22T05:14:00;101741.69;;;17.04;93.52
26443;BME280;5563;52.296;6.806;2023-06-22T05:16:48;101736.16;;;17.05;93.28
26443;BME280;5563;52.296;6.806;2023-06-22T05:19:22;101752.59;;;17.21;93.16
26443;BME280;5563;52.296;6.806;2023-06-22T05:21:49;101735.41;;;17.22;93.15
26443;BME280;5563;52.296;6.806;2023-06-22T05:24:27;101736.53;;;17.39;92.02
26443;BME280;5563;52.296;6.806;2023-06-22T05:27:01;101740.63;;;17.43;91.74
26443;BME280;5563;52.296;6.806;2023-06-22T05:29:28;101722.88;;;17.41;91.88
26443;BME280;5563;52.296;6.806;2023-06-22T05:32:03;101735.34;;;17.61;90.87
26443;BME280;5563;52.296;6.806;2023-06-22T05:34:36;101732.66;;;17.61;90.81
26443;BME280;5563;52.296;6.806;2023-06-22T05:37:10;101726.25;;;17.62;90.38
26443;BME280;5563;52.296;6.806;2023-06-22T05:39:50;101740.09;;;17.76;89.54
26443;BME280;5563;52.296;6.806;2023-06-22T05:42:24;101702.53;;;17.65;89.19
26443;BME280;5563;52.296;6.806;2023-06-22T05:44:52;101728.97;;;17.89;89.43
26443;BME280;5563;52.296;6.806;2023-06-22T05:47:26;101722.13;;;17.94;89.14
26443;BME280;5563;52.296;6.806;2023-06-22T05:50:00;101737.66;;;18.10;87.75
26443;BME280;5563;52.296;6.806;2023-06-22T05:52:27;101722.66;;;18.07;87.62
26443;BME280;5563;52.296;6.806;2023-06-22T05:55:02;101735.88;;;18.28;87.12
26443;BME280;5563;52.296;6.806;2023-06-22T05:57:35;101730.78;;;18.25;87.31
26443;BME280;5563;52.296;6.806;2023-06-22T06:00:02;101746.47;;;18.39;86.63
26443;BME280;5563;52.296;6.806;2023-06-22T06:02:39;101744.19;;;18.44;84.97
26443;BME280;5563;52.296;6.806;2023-06-22T06:05:16;101735.06;;;18.45;85.86
26443;BME280;5563;52.296;6.806;2023-06-22T06:07:44;101733.38;;;18.44;85.20
26443;BME280;5563;52.296;6.806;2023-06-22T06:10:18;101762.50;;;18.68;84.75
26443;BME280;5563;52.296;6.806;2023-06-22T06:12:45;101732.16;;;18.56;84.56
26443;BME280;5563;52.296;6.806;2023-06-22T06:15:12;101766.19;;;18.84;83.40
26443;BME280;5563;52.296;6.806;2023-06-22T06:17:51;101764.72;;;18.90;83.25
26443;BME280;5563;52.296;6.806;2023-06-22T06:20:25;101760.38;;;18.97;82.71
26443;BME280;5563;52.296;6.806;2023-06-22T06:23:00;101748.44;;;18.99;83.04
26443;BME280;5563;52.296;6.806;2023-06-22T06:25:35;101759.38;;;19.15;83.36
26443;BME280;5563;52.296;6.806;2023-06-22T06:28:08;101758.34;;;19.16;82.25
26443;BME280;5563;52.296;6.806;2023-06-22T06:30:42;101732.78;;;19.11;82.30
26443;BME280;5563;52.296;6.806;2023-06-22T06:33:09;101719.34;;;19.19;81.17
26443;BME280;5563;52.296;6.806;2023-06-22T06:35:42;101753.53;;;19.46;80.96
26443;BME280;5563;52.296;6.806;2023-06-22T06:38:09;101751.41;;;19.57;80.56
26443;BME280;5563;52.296;6.806;2023-06-22T06:40:43;101741.97;;;19.61;79.72
26443;BME280;5563;52.296;6.806;2023-06-22T06:43:18;101738.31;;;19.70;78.77
26443;BME280;5563;52.296;6.806;2023-06-22T06:45:45;101742.59;;;19.81;78.71
26443;BME280;5563;52.296;6.806;2023-06-22T06:48:25;101727.50;;;19.78;78.81
26443;BME280;5563;52.296;6.806;2023-06-22T06:50:58;101737.56;;;19.94;78.00
26443;BME280;5563;52.296;6.806;2023-06-22T06:53:31;101733.22;;;20.01;77.55
26443;BME280;5563;52.296;6.806;2023-06-22T06:56:05;101743.88;;;20.10;76.37
26443;BME280;5563;52.296;6.806;2023-06-22T06:58:32;101716.28;;;19.99;74.51
26443;BME280;5563;52.296;6.806;2023-06-22T07:01:05;101727.31;;;20.13;73.89
26443;BME280;5563;52.296;6.806;2023-06-22T07:03:33;101734.00;;;20.27;73.78
26443;BME280;5563;52.296;6.806;2023-06-22T07:06:07;101730.63;;;20.33;73.29
26443;BME280;5563;52.296;6.806;2023-06-22T07:08:34;101727.09;;;20.40;74.71
26443;BME280;5563;52.296;6.806;2023-06-22T07:11:12;101711.00;;;20.39;72.78
26443;BME280;5563;52.296;6.806;2023-06-22T07:13:39;101712.03;;;20.46;73.99
26443;BME280;5563;52.296;6.806;2023-06-22T07:16:12;101708.66;;;20.60;73.78
26443;BME280;5563;52.296;6.806;2023-06-22T07:18:40;101716.66;;;20.86;72.13
26443;BME280;5563;52.296;6.806;2023-06-22T07:21:07;101725.28;;;20.97;72.71
26443;BME280;5563;52.296;6.806;2023-06-22T07:23:40;101718.53;;;21.09;71.57
26443;BME280;5563;52.296;6.806;2023-06-22T07:26:14;101724.81;;;21.18;70.00
26443;BME280;5563;52.296;6.806;2023-06-22T07:28:49;101725.16;;;21.23;70.40
26443;BME280;5563;52.296;6.806;2023-06-22T07:31:17;101704.66;;;21.12;69.95
26443;BME280;5563;52.296;6.806;2023-06-22T07:33:50;101693.44;;;21.15;70.86
26443;BME280;5563;52.296;6.806;2023-06-22T07:36:18;101703.41;;;21.39;70.45
26443;BME280;5563;52.296;6.806;2023-06-22T07:38:51;101709.00;;;21.45;70.63
26443;BME280;5563;52.296;6.806;2023-06-22T07:41:18;101699.50;;;21.50;68.56
26443;BME280;5563;52.296;6.806;2023-06-22T07:43:52;101713.50;;;21.61;69.33
26443;BME280;5563;52.296;6.806;2023-06-22T07:46:25;101708.41;;;21.66;69.17
26443;BME280;5563;52.296;6.806;2023-06-22T07:48:59;101702.09;;;21.74;70.25
26443;BME280;5563;52.296;6.806;2023-06-22T07:51:28;101698.56;;;21.81;70.10
26443;BME280;5563;52.296;6.806;2023-06-22T07:54:01;101708.13;;;22.00;67.03
26443;BME280;5563;52.296;6.806;2023-06-22T07:56:28;101677.59;;;21.98;67.79
26443;BME280;5563;52.296;6.806;2023-06-22T07:59:02;101696.50;;;22.22;66.71
26443;BME280;5563;52.296;6.806;2023-06-22T08:01:30;101696.22;;;22.39;66.33
26443;BME280;5563;52.296;6.806;2023-06-22T08:04:04;101684.75;;;22.52;65.83
26443;BME280;5563;52.296;6.806;2023-06-22T08:06:38;101697.75;;;22.87;65.83
26443;BME280;5563;52.296;6.806;2023-06-22T08:09:05;101694.03;;;23.03;63.63
26443;BME280;5563;52.296;6.806;2023-06-22T08:11:39;101685.72;;;23.19;65.07
26443;BME280;5563;52.296;6.806;2023-06-22T08:14:06;101684.84;;;23.41;64.35
26443;BME280;5563;52.296;6.806;2023-06-22T08:16:41;101656.13;;;23.53;62.56
26443;BME280;5563;52.296;6.806;2023-06-22T08:19:08;101678.72;;;23.83;62.42
26443;BME280;5563;52.296;6.806;2023-06-22T08:21:42;101692.59;;;23.88;59.94
26443;BME280;5563;52.296;6.806;2023-06-22T08:24:09;101688.66;;;23.90;62.23
26443;BME280;5563;52.296;6.806;2023-06-22T08:26:42;101683.97;;;23.99;62.42
26443;BME280;5563;52.296;6.806;2023-06-22T08:29:15;101686.56;;;24.21;63.99
26443;BME280;5563;52.296;6.806;2023-06-22T08:31:49;101668.22;;;24.30;58.61
26443;BME280;5563;52.296;6.806;2023-06-22T08:34:16;101672.06;;;24.35;59.05
26443;BME280;5563;52.296;6.806;2023-06-22T08:36:48;101684.41;;;24.52;58.62
26443;BME280;5563;52.296;6.806;2023-06-22T08:39:25;101686.38;;;24.58;59.12
26443;BME280;5563;52.296;6.806;2023-06-22T08:41:52;101669.53;;;24.55;58.21
26443;BME280;5563;52.296;6.806;2023-06-22T08:44:26;101673.44;;;24.67;59.46
26443;BME280;5563;52.296;6.806;2023-06-22T08:46:53;101674.03;;;24.84;57.59
26443;BME280;5563;52.296;6.806;2023-06-22T08:49:27;101648.44;;;24.85;57.33
26443;BME280;5563;52.296;6.806;2023-06-22T08:51:54;101644.78;;;24.99;58.99
26443;BME280;5563;52.296;6.806;2023-06-22T08:54:23;101646.84;;;25.24;57.75
26443;BME280;5563;52.296;6.806;2023-06-22T08:56:57;101624.78;;;25.53;59.42
26443;BME280;5563;52.296;6.806;2023-06-22T08:59:24;101629.94;;;25.76;55.85
26443;BME280;5563;52.296;6.806;2023-06-22T09:01:51;101643.13;;;26.13;55.94
26443;BME280;5563;52.296;6.806;2023-06-22T09:04:24;101629.31;;;26.28;55.30
26443;BME280;5563;52.296;6.806;2023-06-22T09:06:59;101623.22;;;26.52;52.89
26443;BME280;5563;52.296;6.806;2023-06-22T09:09:32;101615.63;;;26.28;52.90
26443;BME280;5563;52.296;6.806;2023-06-22T09:12:07;101613.09;;;26.33;54.47
26443;BME280;5563;52.296;6.806;2023-06-22T09:14:35;101598.16;;;26.29;52.63
26443;BME280;5563;52.296;6.806;2023-06-22T09:17:08;101610.38;;;26.33;53.80
26443;BME280;5563;52.296;6.806;2023-06-22T09:19:35;101621.75;;;26.36;53.82
26443;BME280;5563;52.296;6.806;2023-06-22T09:22:08;101615.19;;;26.24;54.17
26443;BME280;5563;52.296;6.806;2023-06-22T09:24:41;101617.50;;;26.14;52.69
26443;BME280;5563;52.296;6.806;2023-06-22T09:27:21;101619.31;;;26.01;53.12
26443;BME280;5563;52.296;6.806;2023-06-22T09:29:56;101620.38;;;26.00;53.99
26443;BME280;5563;52.296;6.806;2023-06-22T09:32:32;101609.44;;;25.93;54.80
26443;BME280;5563;52.296;6.806;2023-06-22T09:35:06;101616.13;;;25.97;54.05
26443;BME280;5563;52.296;6.806;2023-06-22T09:37:33;101618.09;;;26.03;53.79
26443;BME280;5563;52.296;6.806;2023-06-22T09:40:08;101607.94;;;25.97;55.44
26443;BME280;5563;52.296;6.806;2023-06-22T09:42:37;101624.84;;;26.07;54.05
26443;BME280;5563;52.296;6.806;2023-06-22T09:45:11;101625.84;;;26.00;54.39
26443;BME280;5563;52.296;6.806;2023-06-22T09:47:38;101604.53;;;25.76;53.65
26443;BME280;5563;52.296;6.806;2023-06-22T09:50:11;101618.75;;;25.65;54.49
26443;BME280;5563;52.296;6.806;2023-06-22T09:52:39;101616.78;;;25.45;53.76
26443;BME280;5563;52.296;6.806;2023-06-22T09:55:14;101612.41;;;25.23;54.17
26443;BME280;5563;52.296;6.806;2023-06-22T09:57:43;101614.66;;;25.13;54.08
26443;BME280;5563;52.296;6.806;2023-06-22T10:00:17;101614.56;;;25.00;54.79
26443;BME280;5563;52.296;6.806;2023-06-22T10:02:46;101604.06;;;24.97;56.48
26443;BME280;5563;52.296;6.806;2023-06-22T10:05:22;101616.69;;;25.05;55.73
26443;BME280;5563;52.296;6.806;2023-06-22T10:07:49;101606.78;;;24.97;55.38
26443;BME280;5563;52.296;6.806;2023-06-22T10:10:22;101609.38;;;25.12;55.77
26443;BME280;5563;52.296;6.806;2023-06-22T10:13:01;101622.25;;;25.18;56.76
26443;BME280;5563;52.296;6.806;2023-06-22T10:15:30;101594.69;;;25.06;54.90
26443;BME280;5563;52.296;6.806;2023-06-22T10:18:04;101611.53;;;25.16;54.70
26443;BME280;5563;52.296;6.806;2023-06-22T10:20:31;101600.16;;;25.13;55.40
26443;BME280;5563;52.296;6.806;2023-06-22T10:23:05;101596.34;;;25.07;55.58
26443;BME280;5563;52.296;6.806;2023-06-22T10:25:38;101587.88;;;24.96;56.99
26443;BME280;5563;52.296;6.806;2023-06-22T10:28:13;101592.09;;;24.98;54.48
26443;BME280;5563;52.296;6.806;2023-06-22T10:30:46;101593.06;;;24.91;54.81
26443;BME280;5563;52.296;6.806;2023-06-22T10:33:13;101598.16;;;24.94;56.67
26443;BME280;5563;52.296;6.806;2023-06-22T10:35:46;101597.00;;;24.82;54.88
26443;BME280;5563;52.296;6.806;2023-06-22T10:38:13;101599.09;;;24.80;56.02
26443;BME280;5563;52.296;6.806;2023-06-22T10:40:53;101593.78;;;24.72;57.93
26443;BME280;5563;52.296;6.806;2023-06-22T10:43:23;101590.31;;;24.63;57.84
26443;BME280;5563;52.296;6.806;2023-06-22T10:45:56;101605.59;;;24.57;57.48
26443;BME280;5563;52.296;6.806;2023-06-22T10:48:23;101595.19;;;24.46;57.18
26443;BME280;5563;52.296;6.806;2023-06-22T10:50:56;101598.72;;;24.40;56.33
26443;BME280;5563;52.296;6.806;2023-06-22T10:53:23;101611.97;;;24.43;56.82
26443;BME280;5563;52.296;6.806;2023-06-22T10:55:58;101610.44;;;24.41;59.04
26443;BME280;5563;52.296;6.806;2023-06-22T10:58:25;101601.66;;;24.39;58.63
26443;BME280;5563;52.296;6.806;2023-06-22T11:01:00;101602.94;;;24.43;60.12
26443;BME280;5563;52.296;6.806;2023-06-22T11:03:27;101599.75;;;24.39;58.22
26443;BME280;5563;52.296;6.806;2023-06-22T11:06:01;101591.97;;;24.36;58.12
26443;BME280;5563;52.296;6.806;2023-06-22T11:08:28;101591.38;;;24.41;60.30
26443;BME280;5563;52.296;6.806;2023-06-22T11:11:01;101594.81;;;24.49;59.69
26443;BME280;5563;52.296;6.806;2023-06-22T11:13:34;101581.44;;;24.54;58.93
26443;BME280;5563;52.296;6.806;2023-06-22T11:16:09;101582.53;;;24.60;60.27
26443;BME280;5563;52.296;6.806;2023-06-22T11:18:39;101573.72;;;24.58;60.40
26443;BME280;5563;52.296;6.806;2023-06-22T11:21:12;101571.88;;;24.65;61.25
26443;BME280;5563;52.296;6.806;2023-06-22T11:23:46;101579.34;;;24.78;59.72
26443;BME280;5563;52.296;6.806;2023-06-22T11:26:20;101586.53;;;24.85;58.80
26443;BME280;5563;52.296;6.806;2023-06-22T11:28:55;101579.00;;;24.87;58.34
26443;BME280;5563;52.296;6.806;2023-06-22T11:31:22;101574.81;;;24.91;57.42
26443;BME280;5563;52.296;6.806;2023-06-22T11:33:56;101559.97;;;24.94;56.98
26443;BME280;5563;52.296;6.806;2023-06-22T11:36:30;101545.66;;;24.92;58.01
26443;BME280;5563;52.296;6.806;2023-06-22T11:38:59;101541.50;;;24.96;57.22
26443;BME280;5563;52.296;6.806;2023-06-22T11:41:33;101543.22;;;25.03;58.94
26443;BME280;5563;52.296;6.806;2023-06-22T11:44:06;101546.00;;;25.10;58.11
26443;BME280;5563;52.296;6.806;2023-06-22T11:46:40;101536.72;;;25.04;60.08
26443;BME280;5563;52.296;6.806;2023-06-22T11:49:14;101546.59;;;25.05;57.16
26443;BME280;5563;52.296;6.806;2023-06-22T11:51:41;101543.59;;;24.94;57.95
26443;BME280;5563;52.296;6.806;2023-06-22T11:54:15;101529.19;;;24.79;57.94
26443;BME280;5563;52.296;6.806;2023-06-22T11:56:41;101528.91;;;24.67;56.94
26443;BME280;5563;52.296;6.806;2023-06-22T11:59:21;101518.84;;;24.46;59.58
26443;BME280;5563;52.296;6.806;2023-06-22T12:01:54;101528.50;;;24.42;60.10
26443;BME280;5563;52.296;6.806;2023-06-22T12:04:22;101527.97;;;24.32;58.69
26443;BME280;5563;52.296;6.806;2023-06-22T12:06:55;101522.69;;;24.24;59.34
26443;BME280;5563;52.296;6.806;2023-06-22T12:09:22;101511.44;;;24.13;58.45
26443;BME280;5563;52.296;6.806;2023-06-22T12:11:56;101520.41;;;24.07;59.75
26443;BME280;5563;52.296;6.806;2023-06-22T12:14:33;101504.56;;;23.96;59.08
26443;BME280;5563;52.296;6.806;2023-06-22T12:17:07;101487.56;;;23.73;60.46
26443;BME280;5563;52.296;6.806;2023-06-22T12:19:34;101493.09;;;23.65;60.85
26443;BME280;5563;52.296;6.806;2023-06-22T12:22:08;101513.09;;;23.72;60.97
26443;BME280;5563;52.296;6.806;2023-06-22T12:24:34;101521.00;;;23.67;62.60
26443;BME280;5563;52.296;6.806;2023-06-22T12:27:09;101516.34;;;23.61;62.25
26443;BME280;5563;52.296;6.806;2023-06-22T12:29:43;101516.06;;;23.56;61.72
26443;BME280;5563;52.296;6.806;2023-06-22T12:32:17;101525.00;;;23.49;64.21
26443;BME280;5563;52.296;6.806;2023-06-22T12:34:44;101519.94;;;23.46;64.63
26443;BME280;5563;52.296;6.806;2023-06-22T12:37:11;101523.22;;;23.42;63.84
26443;BME280;5563;52.296;6.806;2023-06-22T12:39:44;101519.75;;;23.33;64.92
26443;BME280;5563;52.296;6.806;2023-06-22T12:42:11;101529.78;;;23.33;65.85
26443;BME280;5563;52.296;6.806;2023-06-22T12:44:45;101535.44;;;23.31;64.40
26443;BME280;5563;52.296;6.806;2023-06-22T12:47:13;101534.09;;;23.27;65.70
26443;BME280;5563;52.296;6.806;2023-06-22T12:49:46;101546.00;;;23.26;63.53
26443;BME280;5563;52.296;6.806;2023-06-22T12:52:14;101535.72;;;23.22;64.12
26443;BME280;5563;52.296;6.806;2023-06-22T12:54:48;101539.91;;;23.24;64.99
26443;BME280;5563;52.296;6.806;2023-06-22T12:57:21;101517.59;;;23.14;65.96
26443;BME280;5563;52.296;6.806;2023-06-22T12:59:54;101541.31;;;23.20;70.20
26443;BME280;5563;52.296;6.806;2023-06-22T13:02:22;101547.16;;;23.17;72.34
26443;BME280;5563;52.296;6.806;2023-06-22T13:04:56;101531.41;;;22.98;71.35
26443;BME280;5563;52.296;6.806;2023-06-22T13:07:23;101512.34;;;22.84;73.95
26443;BME280;5563;52.296;6.806;2023-06-22T13:09:57;101551.84;;;22.94;73.93
26443;BME280;5563;52.296;6.806;2023-06-22T13:12:24;101548.56;;;22.84;75.89
26443;BME280;5563;52.296;6.806;2023-06-22T13:14:58;101532.13;;;22.63;75.34
26443;BME280;5563;52.296;6.806;2023-06-22T13:17:25;101531.00;;;22.49;76.87
26443;BME280;5563;52.296;6.806;2023-06-22T13:19:59;101530.63;;;22.38;79.76
26443;BME280;5563;52.296;6.806;2023-06-22T13:22:31;101498.22;;;22.14;81.61
26443;BME280;5563;52.296;6.806;2023-06-22T13:25:07;101506.84;;;22.17;82.51
26443;BME280;5563;52.296;6.806;2023-06-22T13:27:47;101489.44;;;22.12;83.88
26443;BME280;5563;52.296;6.806;2023-06-22T13:30:21;101505.75;;;22.12;85.00
26443;BME280;5563;52.296;6.806;2023-06-22T13:32:55;101510.69;;;22.08;84.07
26443;BME280;5563;52.296;6.806;2023-06-22T13:35:29;101502.78;;;21.99;83.90
26443;BME280;5563;52.296;6.806;2023-06-22T13:37:56;101505.06;;;21.87;84.13